sensor_id;sensor_type;location;lat;lon;timestamp;pressure;altitude;pressure_sealevel;temperature;humidity
51053;BME280;37093;37.716;-122.060;2023-04-15T00:01:58;99880.90;;;18.56;32.84
51053;BME280;37093;37.716;-122.060;2023-04-15T00:04:27;99880.33;;;18.09;33.73
51053;BME280;37093;37.716;-122.060;2023-04-15T00:06:55;99877.47;;;17.96;33.02
51053;BME280;37093;37.716;-122.060;2023-04-15T00:09:23;99876.28;;;17.83;33.83
51053;BME280;37093;37.716;-122.060;2023-04-15T00:11:52;99877.78;;;17.67;34.22
51053;BME280;37093;37.716;-122.060;2023-04-15T00:14:20;99882.01;;;16.46;35.53
51053;BME280;37093;37.716;-122.060;2023-04-15T00:16:49;99882.91;;;17.27;34.87
51053;BME280;37093;37.716;-122.060;2023-04-15T00:19:17;99884.03;;;17.02;35.49
51053;BME280;37093;37.716;-122.060;2023-04-15T00:21:46;99884.11;;;17.45;34.31
51053;BME280;37093;37.716;-122.060;2023-04-15T00:24:14;99885.76;;;16.66;35.58
51053;BME280;37093;37.716;-122.060;2023-04-15T00:26:44;99891.15;;;16.75;36.33
51053;BME280;37093;37.716;-122.060;2023-04-15T00:29:12;99887.68;;;16.54;35.69
51053;BME280;37093;37.716;-122.060;2023-04-15T00:31:41;99885.20;;;16.45;35.42
51053;BME280;37093;37.716;-122.060;2023-04-15T00:34:09;99880.56;;;16.26;36.01
51053;BME280;37093;37.716;-122.060;2023-04-15T00:36:38;99880.04;;;16.50;36.05
51053;BME280;37093;37.716;-122.060;2023-04-15T00:39:07;99883.30;;;16.56;36.34
51053;BME280;37093;37.716;-122.060;2023-04-15T00:41:35;99883.13;;;17.28;35.49
51053;BME280;37093;37.716;-122.060;2023-04-15T00:44:04;99890.64;;;17.18;35.19
51053;BME280;37093;37.716;-122.060;2023-04-15T00:46:34;99884.92;;;16.84;35.55
51053;BME280;37093;37.716;-122.060;2023-04-15T00:49:05;99885.62;;;16.23;36.49
51053;BME280;37093;37.716;-122.060;2023-04-15T00:51:34;99882.15;;;16.52;36.72
51053;BME280;37093;37.716;-122.060;2023-04-15T00:54:03;99885.59;;;16.52;35.75
51053;BME280;37093;37.716;-122.060;2023-04-15T00:56:35;99890.60;;;16.48;36.51
51053;BME280;37093;37.716;-122.060;2023-04-15T00:59:04;99892.86;;;16.42;35.94
51053;BME280;37093;37.716;-122.060;2023-04-15T01:01:34;99895.53;;;15.87;36.93
51053;BME280;37093;37.716;-122.060;2023-04-15T01:04:03;99894.51;;;16.60;36.13
51053;BME280;37093;37.716;-122.060;2023-04-15T01:06:32;99893.21;;;16.90;35.26
51053;BME280;37093;37.716;-122.060;2023-04-15T01:09:00;99895.68;;;16.66;35.65
51053;BME280;37093;37.716;-122.060;2023-04-15T01:11:29;99893.49;;;16.75;35.61
51053;BME280;37093;37.716;-122.060;2023-04-15T01:13:59;99894.64;;;16.94;35.20
51053;BME280;37093;37.716;-122.060;2023-04-15T01:16:28;99894.30;;;16.25;35.70
51053;BME280;37093;37.716;-122.060;2023-04-15T01:18:57;99891.40;;;16.28;35.20
51053;BME280;37093;37.716;-122.060;2023-04-15T01:21:26;99894.70;;;16.34;35.34
51053;BME280;37093;37.716;-122.060;2023-04-15T01:23:55;99893.59;;;15.46;37.33
51053;BME280;37093;37.716;-122.060;2023-04-15T01:26:23;99900.05;;;16.09;36.35
51053;BME280;37093;37.716;-122.060;2023-04-15T01:28:53;99903.31;;;16.67;35.83
51053;BME280;37093;37.716;-122.060;2023-04-15T01:31:21;99909.46;;;15.97;37.15
51053;BME280;37093;37.716;-122.060;2023-04-15T01:33:50;99909.54;;;16.19;36.34
51053;BME280;37093;37.716;-122.060;2023-04-15T01:36:19;99908.55;;;15.70;36.95
51053;BME280;37093;37.716;-122.060;2023-04-15T01:38:47;99907.00;;;15.86;37.06
51053;BME280;37093;37.716;-122.060;2023-04-15T01:41:16;99909.80;;;16.34;37.24
51053;BME280;37093;37.716;-122.060;2023-04-15T01:43:48;99913.49;;;15.80;38.06
51053;BME280;37093;37.716;-122.060;2023-04-15T01:46:17;99915.53;;;16.18;37.36
51053;BME280;37093;37.716;-122.060;2023-04-15T01:48:45;99919.69;;;16.27;37.29
51053;BME280;37093;37.716;-122.060;2023-04-15T01:51:14;99920.09;;;15.36;39.12
51053;BME280;37093;37.716;-122.060;2023-04-15T01:53:42;99917.89;;;16.09;37.20
51053;BME280;37093;37.716;-122.060;2023-04-15T01:56:11;99921.88;;;16.80;36.42
51053;BME280;37093;37.716;-122.060;2023-04-15T01:58:39;99924.72;;;17.10;36.11
51053;BME280;37093;37.716;-122.060;2023-04-15T02:01:08;99928.38;;;16.82;36.05
51053;BME280;37093;37.716;-122.060;2023-04-15T02:03:36;99935.48;;;16.28;36.35
51053;BME280;37093;37.716;-122.060;2023-04-15T02:06:05;99939.26;;;16.70;36.26
51053;BME280;37093;37.716;-122.060;2023-04-15T02:08:33;99939.33;;;16.84;35.80
51053;BME280;37093;37.716;-122.060;2023-04-15T02:11:02;99942.97;;;16.05;37.56
51053;BME280;37093;37.716;-122.060;2023-04-15T02:13:30;99943.09;;;16.21;37.51
51053;BME280;37093;37.716;-122.060;2023-04-15T02:15:59;99943.77;;;16.21;37.27
51053;BME280;37093;37.716;-122.060;2023-04-15T02:18:27;99949.95;;;16.43;37.03
51053;BME280;37093;37.716;-122.060;2023-04-15T02:20:56;99953.21;;;15.77;38.46
51053;BME280;37093;37.716;-122.060;2023-04-15T02:23:25;99953.44;;;16.87;36.94
51053;BME280;37093;37.716;-122.060;2023-04-15T02:25:53;99958.07;;;16.54;37.27
51053;BME280;37093;37.716;-122.060;2023-04-15T02:28:22;99961.73;;;16.33;37.40
51053;BME280;37093;37.716;-122.060;2023-04-15T02:30:51;99963.66;;;16.01;39.32
51053;BME280;37093;37.716;-122.060;2023-04-15T02:33:20;99969.79;;;15.64;39.45
51053;BME280;37093;37.716;-122.060;2023-04-15T02:35:48;99973.21;;;15.92;39.68
51053;BME280;37093;37.716;-122.060;2023-04-15T02:38:16;99974.37;;;15.40;40.15
51053;BME280;37093;37.716;-122.060;2023-04-15T02:40:45;99975.85;;;14.68;41.13
51053;BME280;37093;37.716;-122.060;2023-04-15T02:43:13;99979.71;;;15.63;39.84
51053;BME280;37093;37.716;-122.060;2023-04-15T02:45:42;99981.53;;;15.22;40.64
51053;BME280;37093;37.716;-122.060;2023-04-15T02:48:10;99993.49;;;14.91;42.30
51053;BME280;37093;37.716;-122.060;2023-04-15T02:50:39;99995.81;;;14.53;42.92
51053;BME280;37093;37.716;-122.060;2023-04-15T02:53:08;100000.88;;;14.59;42.65
51053;BME280;37093;37.716;-122.060;2023-04-15T02:55:36;100004.80;;;14.48;43.78
51053;BME280;37093;37.716;-122.060;2023-04-15T02:58:05;100010.47;;;14.39;43.07
51053;BME280;37093;37.716;-122.060;2023-04-15T03:00:33;100011.85;;;13.89;43.93
51053;BME280;37093;37.716;-122.060;2023-04-15T03:03:04;100011.47;;;14.55;43.14
51053;BME280;37093;37.716;-122.060;2023-04-15T03:05:32;100014.41;;;14.48;43.68
51053;BME280;37093;37.716;-122.060;2023-04-15T03:08:00;100019.08;;;14.42;43.91
51053;BME280;37093;37.716;-122.060;2023-04-15T03:10:29;100023.27;;;14.22;44.77
51053;BME280;37093;37.716;-122.060;2023-04-15T03:12:58;100028.18;;;14.45;44.17
51053;BME280;37093;37.716;-122.060;2023-04-15T03:15:26;100031.62;;;14.57;43.83
51053;BME280;37093;37.716;-122.060;2023-04-15T03:17:55;100035.78;;;13.72;45.49
51053;BME280;37093;37.716;-122.060;2023-04-15T03:20:23;100039.28;;;14.63;43.37
51053;BME280;37093;37.716;-122.060;2023-04-15T03:22:52;100038.06;;;15.66;41.91
51053;BME280;37093;37.716;-122.060;2023-04-15T03:25:21;100047.21;;;14.35;43.58
51053;BME280;37093;37.716;-122.060;2023-04-15T03:27:49;100052.66;;;14.93;44.04
51053;BME280;37093;37.716;-122.060;2023-04-15T03:30:18;100055.75;;;14.70;43.50
51053;BME280;37093;37.716;-122.060;2023-04-15T03:32:47;100063.13;;;14.66;45.24
51053;BME280;37093;37.716;-122.060;2023-04-15T03:35:15;100065.52;;;13.99;45.77
51053;BME280;37093;37.716;-122.060;2023-04-15T03:37:43;100064.86;;;14.81;44.45
51053;BME280;37093;37.716;-122.060;2023-04-15T03:40:12;100070.82;;;14.30;45.52
51053;BME280;37093;37.716;-122.060;2023-04-15T03:42:40;100073.39;;;14.22;45.36
51053;BME280;37093;37.716;-122.060;2023-04-15T03:45:09;100079.28;;;14.78;43.28
51053;BME280;37093;37.716;-122.060;2023-04-15T03:47:38;100083.31;;;14.65;45.78
51053;BME280;37093;37.716;-122.060;2023-04-15T03:50:08;100086.87;;;14.24;45.36
51053;BME280;37093;37.716;-122.060;2023-04-15T03:52:36;100084.95;;;13.85;46.02
51053;BME280;37093;37.716;-122.060;2023-04-15T03:55:05;100093.49;;;14.44;44.86
51053;BME280;37093;37.716;-122.060;2023-04-15T03:57:34;100096.27;;;13.82;47.14
51053;BME280;37093;37.716;-122.060;2023-04-15T04:00:03;100099.24;;;14.15;46.31
51053;BME280;37093;37.716;-122.060;2023-04-15T04:02:31;100103.47;;;13.98;46.32
51053;BME280;37093;37.716;-122.060;2023-04-15T04:05:00;100107.35;;;14.46;45.61
51053;BME280;37093;37.716;-122.060;2023-04-15T04:07:28;100111.18;;;13.84;46.54
51053;BME280;37093;37.716;-122.060;2023-04-15T04:09:57;100114.15;;;14.02;45.90
51053;BME280;37093;37.716;-122.060;2023-04-15T04:12:25;100112.73;;;14.29;45.73
51053;BME280;37093;37.716;-122.060;2023-04-15T04:14:54;100123.50;;;14.01;46.21
51053;BME280;37093;37.716;-122.060;2023-04-15T04:17:23;100123.92;;;14.24;45.43
51053;BME280;37093;37.716;-122.060;2023-04-15T04:19:51;100128.44;;;14.37;45.33
51053;BME280;37093;37.716;-122.060;2023-04-15T04:22:22;100131.25;;;13.81;45.27
51053;BME280;37093;37.716;-122.060;2023-04-15T04:24:51;100134.19;;;14.41;44.75
51053;BME280;37093;37.716;-122.060;2023-04-15T04:27:19;100136.88;;;14.56;45.58
51053;BME280;37093;37.716;-122.060;2023-04-15T04:29:48;100138.92;;;13.72;46.69
51053;BME280;37093;37.716;-122.060;2023-04-15T04:32:17;100139.95;;;13.76;46.33
51053;BME280;37093;37.716;-122.060;2023-04-15T04:34:46;100141.86;;;13.66;47.45
51053;BME280;37093;37.716;-122.060;2023-04-15T04:37:14;100145.10;;;14.13;45.62
51053;BME280;37093;37.716;-122.060;2023-04-15T04:39:42;100146.25;;;13.80;46.68
51053;BME280;37093;37.716;-122.060;2023-04-15T04:42:11;100153.99;;;13.65;47.25
51053;BME280;37093;37.716;-122.060;2023-04-15T04:44:40;100159.72;;;13.32;47.65
51053;BME280;37093;37.716;-122.060;2023-04-15T04:47:08;100162.92;;;13.09;47.29
51053;BME280;37093;37.716;-122.060;2023-04-15T04:49:37;100164.22;;;13.75;46.31
51053;BME280;37093;37.716;-122.060;2023-04-15T04:52:06;100171.18;;;14.10;45.53
51053;BME280;37093;37.716;-122.060;2023-04-15T04:54:34;100175.95;;;14.42;45.40
51053;BME280;37093;37.716;-122.060;2023-04-15T04:57:02;100179.00;;;13.42;47.54
51053;BME280;37093;37.716;-122.060;2023-04-15T04:59:31;100176.85;;;13.82;46.16
51053;BME280;37093;37.716;-122.060;2023-04-15T05:02:00;100180.85;;;13.75;47.33
51053;BME280;37093;37.716;-122.060;2023-04-15T05:04:28;100183.63;;;13.64;46.89
51053;BME280;37093;37.716;-122.060;2023-04-15T05:06:57;100184.21;;;13.66;47.01
51053;BME280;37093;37.716;-122.060;2023-04-15T05:09:25;100182.55;;;13.86;46.48
51053;BME280;37093;37.716;-122.060;2023-04-15T05:11:54;100186.50;;;13.39;47.44
51053;BME280;37093;37.716;-122.060;2023-04-15T05:14:22;100188.46;;;13.42;47.92
51053;BME280;37093;37.716;-122.060;2023-04-15T05:16:51;100193.76;;;13.86;46.86
51053;BME280;37093;37.716;-122.060;2023-04-15T05:19:20;100194.93;;;13.87;46.69
51053;BME280;37093;37.716;-122.060;2023-04-15T05:21:48;100195.31;;;13.91;46.48
51053;BME280;37093;37.716;-122.060;2023-04-15T05:24:17;100196.84;;;14.23;45.96
51053;BME280;37093;37.716;-122.060;2023-04-15T05:26:45;100191.97;;;14.01;46.05
51053;BME280;37093;37.716;-122.060;2023-04-15T05:29:14;100187.06;;;13.71;47.53
51053;BME280;37093;37.716;-122.060;2023-04-15T05:31:43;100186.83;;;13.86;46.37
51053;BME280;37093;37.716;-122.060;2023-04-15T05:34:11;100187.60;;;13.65;47.38
51053;BME280;37093;37.716;-122.060;2023-04-15T05:36:41;100186.85;;;13.86;46.48
51053;BME280;37093;37.716;-122.060;2023-04-15T05:39:09;100187.38;;;14.09;46.55
51053;BME280;37093;37.716;-122.060;2023-04-15T05:41:38;100189.87;;;14.12;46.37
51053;BME280;37093;37.716;-122.060;2023-04-15T05:44:06;100193.48;;;14.01;46.39
51053;BME280;37093;37.716;-122.060;2023-04-15T05:46:35;100194.73;;;14.45;45.40
51053;BME280;37093;37.716;-122.060;2023-04-15T05:49:04;100198.93;;;14.11;45.97
51053;BME280;37093;37.716;-122.060;2023-04-15T05:51:32;100199.36;;;14.06;45.83
51053;BME280;37093;37.716;-122.060;2023-04-15T05:54:00;100204.70;;;14.64;45.10
51053;BME280;37093;37.716;-122.060;2023-04-15T05:56:28;100208.39;;;14.59;44.96
51053;BME280;37093;37.716;-122.060;2023-04-15T05:58:57;100208.72;;;14.27;45.77
51053;BME280;37093;37.716;-122.060;2023-04-15T06:01:25;100204.24;;;14.68;45.18
51053;BME280;37093;37.716;-122.060;2023-04-15T06:03:54;100201.19;;;14.80;45.03
51053;BME280;37093;37.716;-122.060;2023-04-15T06:06:23;100201.82;;;14.62;45.00
51053;BME280;37093;37.716;-122.060;2023-04-15T06:08:51;100203.29;;;15.10;44.21
51053;BME280;37093;37.716;-122.060;2023-04-15T06:11:20;100205.11;;;14.45;44.49
51053;BME280;37093;37.716;-122.060;2023-04-15T06:13:48;100208.68;;;14.28;44.75
51053;BME280;37093;37.716;-122.060;2023-04-15T06:16:17;100208.09;;;14.44;45.91
51053;BME280;37093;37.716;-122.060;2023-04-15T06:18:45;100210.26;;;14.34;45.84
51053;BME280;37093;37.716;-122.060;2023-04-15T06:21:14;100208.61;;;14.25;46.34
51053;BME280;37093;37.716;-122.060;2023-04-15T06:23:42;100210.49;;;13.00;48.42
51053;BME280;37093;37.716;-122.060;2023-04-15T06:26:10;100208.50;;;14.27;47.31
51053;BME280;37093;37.716;-122.060;2023-04-15T06:28:39;100207.02;;;13.78;46.64
51053;BME280;37093;37.716;-122.060;2023-04-15T06:31:08;100207.76;;;13.33;48.74
51053;BME280;37093;37.716;-122.060;2023-04-15T06:33:36;100205.58;;;13.94;47.53
51053;BME280;37093;37.716;-122.060;2023-04-15T06:36:05;100202.75;;;14.34;45.49
51053;BME280;37093;37.716;-122.060;2023-04-15T06:38:34;100204.08;;;13.61;47.94
51053;BME280;37093;37.716;-122.060;2023-04-15T06:41:03;100207.49;;;14.31;46.35
51053;BME280;37093;37.716;-122.060;2023-04-15T06:43:31;100214.18;;;13.75;47.62
51053;BME280;37093;37.716;-122.060;2023-04-15T06:45:59;100214.68;;;14.14;45.63
51053;BME280;37093;37.716;-122.060;2023-04-15T06:48:28;100217.34;;;14.03;46.41
51053;BME280;37093;37.716;-122.060;2023-04-15T06:50:56;100217.83;;;14.45;45.50
51053;BME280;37093;37.716;-122.060;2023-04-15T06:53:25;100216.51;;;14.74;44.55
51053;BME280;37093;37.716;-122.060;2023-04-15T06:55:53;100215.63;;;14.26;44.72
51053;BME280;37093;37.716;-122.060;2023-04-15T06:58:22;100217.34;;;14.47;43.83
51053;BME280;37093;37.716;-122.060;2023-04-15T07:01:14;100218.28;;;13.49;45.11
51053;BME280;37093;37.716;-122.060;2023-04-15T07:03:43;100217.57;;;13.62;42.19
51053;BME280;37093;37.716;-122.060;2023-04-15T07:06:11;100218.57;;;15.37;40.49
51053;BME280;37093;37.716;-122.060;2023-04-15T07:08:40;100220.77;;;15.84;40.53
51053;BME280;37093;37.716;-122.060;2023-04-15T07:11:08;100223.68;;;15.74;41.06
51053;BME280;37093;37.716;-122.060;2023-04-15T07:13:36;100224.80;;;14.99;42.94
51053;BME280;37093;37.716;-122.060;2023-04-15T07:16:05;100225.09;;;14.96;43.01
51053;BME280;37093;37.716;-122.060;2023-04-15T07:18:33;100221.82;;;14.40;43.91
51053;BME280;37093;37.716;-122.060;2023-04-15T07:21:02;100227.91;;;14.21;44.21
51053;BME280;37093;37.716;-122.060;2023-04-15T07:23:30;100227.43;;;14.46;43.98
51053;BME280;37093;37.716;-122.060;2023-04-15T07:25:59;100227.58;;;14.69;43.05
51053;BME280;37093;37.716;-122.060;2023-04-15T07:28:27;100232.95;;;15.21;43.19
51053;BME280;37093;37.716;-122.060;2023-04-15T07:30:56;100231.41;;;14.87;42.74
51053;BME280;37093;37.716;-122.060;2023-04-15T07:33:25;100233.37;;;13.62;45.76
51053;BME280;37093;37.716;-122.060;2023-04-15T07:35:53;100236.99;;;13.85;45.40
51053;BME280;37093;37.716;-122.060;2023-04-15T07:38:22;100238.07;;;13.44;45.68
51053;BME280;37093;37.716;-122.060;2023-04-15T07:40:51;100242.93;;;13.77;45.88
51053;BME280;37093;37.716;-122.060;2023-04-15T07:43:20;100246.03;;;13.62;46.19
51053;BME280;37093;37.716;-122.060;2023-04-15T07:45:48;100246.72;;;13.76;44.92
51053;BME280;37093;37.716;-122.060;2023-04-15T07:48:17;100245.42;;;14.21;43.94
51053;BME280;37093;37.716;-122.060;2023-04-15T07:50:46;100246.94;;;14.63;43.21
51053;BME280;37093;37.716;-122.060;2023-04-15T07:53:14;100248.64;;;14.53;43.25
51053;BME280;37093;37.716;-122.060;2023-04-15T07:55:43;100247.55;;;14.23;44.37
51053;BME280;37093;37.716;-122.060;2023-04-15T07:58:11;100245.44;;;14.37;44.04
51053;BME280;37093;37.716;-122.060;2023-04-15T08:00:39;100248.20;;;14.88;43.47
51053;BME280;37093;37.716;-122.060;2023-04-15T08:03:08;100245.14;;;14.93;43.30
51053;BME280;37093;37.716;-122.060;2023-04-15T08:05:36;100247.77;;;14.40;44.06
51053;BME280;37093;37.716;-122.060;2023-04-15T08:08:05;100248.44;;;14.50;43.87
51053;BME280;37093;37.716;-122.060;2023-04-15T08:10:34;100250.71;;;14.21;45.18
51053;BME280;37093;37.716;-122.060;2023-04-15T08:13:02;100250.12;;;14.45;44.24
51053;BME280;37093;37.716;-122.060;2023-04-15T08:15:31;100248.91;;;14.21;44.14
51053;BME280;37093;37.716;-122.060;2023-04-15T08:17:59;100248.79;;;15.02;43.78
51053;BME280;37093;37.716;-122.060;2023-04-15T08:20:28;100249.74;;;14.50;44.18
51053;BME280;37093;37.716;-122.060;2023-04-15T08:22:56;100240.08;;;14.94;42.85
51053;BME280;37093;37.716;-122.060;2023-04-15T08:25:25;100242.64;;;13.79;45.07
51053;BME280;37093;37.716;-122.060;2023-04-15T08:27:55;100244.66;;;13.99;44.26
51053;BME280;37093;37.716;-122.060;2023-04-15T08:30:24;100242.27;;;13.60;45.73
51053;BME280;37093;37.716;-122.060;2023-04-15T08:32:52;100238.99;;;14.00;45.44
51053;BME280;37093;37.716;-122.060;2023-04-15T08:35:21;100240.54;;;13.89;45.52
51053;BME280;37093;37.716;-122.060;2023-04-15T08:37:49;100239.85;;;14.12;44.35
51053;BME280;37093;37.716;-122.060;2023-04-15T08:40:18;100240.79;;;13.77;44.81
51053;BME280;37093;37.716;-122.060;2023-04-15T08:42:49;100237.28;;;13.79;45.43
51053;BME280;37093;37.716;-122.060;2023-04-15T08:45:20;100233.13;;;14.10;44.46
51053;BME280;37093;37.716;-122.060;2023-04-15T08:47:52;100236.98;;;14.42;43.66
51053;BME280;37093;37.716;-122.060;2023-04-15T08:50:24;100241.37;;;13.07;46.11
51053;BME280;37093;37.716;-122.060;2023-04-15T08:52:54;100237.64;;;14.01;45.19
51053;BME280;37093;37.716;-122.060;2023-04-15T08:55:23;100238.97;;;13.85;44.97
51053;BME280;37093;37.716;-122.060;2023-04-15T08:57:52;100238.75;;;14.28;44.37
51053;BME280;37093;37.716;-122.060;2023-04-15T09:00:21;100236.70;;;14.29;43.78
51053;BME280;37093;37.716;-122.060;2023-04-15T09:02:49;100235.94;;;14.18;45.09
51053;BME280;37093;37.716;-122.060;2023-04-15T09:05:17;100234.75;;;13.84;45.66
51053;BME280;37093;37.716;-122.060;2023-04-15T09:07:46;100238.38;;;13.62;45.91
51053;BME280;37093;37.716;-122.060;2023-04-15T09:10:14;100243.71;;;13.09;48.28
51053;BME280;37093;37.716;-122.060;2023-04-15T09:12:43;100245.60;;;13.71;46.72
51053;BME280;37093;37.716;-122.060;2023-04-15T09:15:11;100246.53;;;12.99;46.31
51053;BME280;37093;37.716;-122.060;2023-04-15T09:17:42;100243.14;;;13.54;46.85
51053;BME280;37093;37.716;-122.060;2023-04-15T09:20:13;100242.29;;;13.19;46.78
51053;BME280;37093;37.716;-122.060;2023-04-15T09:22:45;100240.84;;;13.57;46.35
51053;BME280;37093;37.716;-122.060;2023-04-15T09:25:28;100236.87;;;13.88;45.79
51053;BME280;37093;37.716;-122.060;2023-04-15T09:27:58;100236.85;;;13.10;47.64
51053;BME280;37093;37.716;-122.060;2023-04-15T09:30:28;100237.20;;;13.60;46.86
51053;BME280;37093;37.716;-122.060;2023-04-15T09:32:57;100238.69;;;13.96;45.33
51053;BME280;37093;37.716;-122.060;2023-04-15T09:35:26;100240.24;;;13.69;46.50
51053;BME280;37093;37.716;-122.060;2023-04-15T09:38:03;100243.34;;;13.65;46.33
51053;BME280;37093;37.716;-122.060;2023-04-15T09:40:32;100241.55;;;13.20;46.15
51053;BME280;37093;37.716;-122.060;2023-04-15T09:43:03;100246.21;;;13.29;46.54
51053;BME280;37093;37.716;-122.060;2023-04-15T09:45:32;100240.82;;;13.51;45.88
51053;BME280;37093;37.716;-122.060;2023-04-15T09:48:16;100241.79;;;13.54;45.24
51053;BME280;37093;37.716;-122.060;2023-04-15T09:50:45;100240.42;;;13.54;45.98
51053;BME280;37093;37.716;-122.060;2023-04-15T09:53:17;100240.89;;;13.36;46.52
51053;BME280;37093;37.716;-122.060;2023-04-15T09:55:48;100240.07;;;13.38;46.46
51053;BME280;37093;37.716;-122.060;2023-04-15T09:58:18;100235.49;;;13.45;46.18
51053;BME280;37093;37.716;-122.060;2023-04-15T10:00:48;100240.26;;;12.93;47.37
51053;BME280;37093;37.716;-122.060;2023-04-15T10:03:20;100239.23;;;13.05;46.91
51053;BME280;37093;37.716;-122.060;2023-04-15T10:05:50;100238.88;;;13.04;47.89
51053;BME280;37093;37.716;-122.060;2023-04-15T10:08:19;100243.82;;;12.30;48.98
51053;BME280;37093;37.716;-122.060;2023-04-15T10:10:49;100245.68;;;12.94;47.60
51053;BME280;37093;37.716;-122.060;2023-04-15T10:13:19;100246.60;;;13.23;46.88
51053;BME280;37093;37.716;-122.060;2023-04-15T10:15:51;100245.30;;;12.99;48.09
51053;BME280;37093;37.716;-122.060;2023-04-15T10:18:25;100247.30;;;12.90;47.30
51053;BME280;37093;37.716;-122.060;2023-04-15T10:20:54;100242.25;;;13.63;46.54
51053;BME280;37093;37.716;-122.060;2023-04-15T10:23:23;100244.38;;;13.86;45.77
51053;BME280;37093;37.716;-122.060;2023-04-15T10:25:52;100243.83;;;13.71;45.76
51053;BME280;37093;37.716;-122.060;2023-04-15T10:28:21;100244.92;;;13.67;46.18
51053;BME280;37093;37.716;-122.060;2023-04-15T10:30:50;100248.81;;;13.40;46.14
51053;BME280;37093;37.716;-122.060;2023-04-15T10:33:21;100247.60;;;12.96;48.07
51053;BME280;37093;37.716;-122.060;2023-04-15T10:35:52;100247.00;;;13.78;45.47
51053;BME280;37093;37.716;-122.060;2023-04-15T10:38:32;100250.91;;;13.84;44.39
51053;BME280;37093;37.716;-122.060;2023-04-15T10:41:20;100249.17;;;12.98;46.09
51053;BME280;37093;37.716;-122.060;2023-04-15T10:43:51;100247.62;;;13.76;45.39
51053;BME280;37093;37.716;-122.060;2023-04-15T10:46:23;100248.74;;;14.10;44.67
51053;BME280;37093;37.716;-122.060;2023-04-15T10:48:53;100248.02;;;13.40;45.39
51053;BME280;37093;37.716;-122.060;2023-04-15T10:51:30;100247.81;;;13.41;45.57
51053;BME280;37093;37.716;-122.060;2023-04-15T10:53:59;100248.19;;;13.90;44.81
51053;BME280;37093;37.716;-122.060;2023-04-15T10:56:29;100247.48;;;13.91;45.02
51053;BME280;37093;37.716;-122.060;2023-04-15T10:58:59;100247.48;;;13.43;45.60
51053;BME280;37093;37.716;-122.060;2023-04-15T11:01:51;100250.54;;;12.23;47.74
51053;BME280;37093;37.716;-122.060;2023-04-15T11:04:52;100248.83;;;12.92;48.01
51053;BME280;37093;37.716;-122.060;2023-04-15T11:07:54;100253.82;;;13.04;46.49
51053;BME280;37093;37.716;-122.060;2023-04-15T11:10:59;100255.28;;;13.97;45.37
51053;BME280;37093;37.716;-122.060;2023-04-15T11:13:28;100254.05;;;13.87;44.77
51053;BME280;37093;37.716;-122.060;2023-04-15T11:15:58;100255.84;;;13.95;44.13
51053;BME280;37093;37.716;-122.060;2023-04-15T11:20:38;100253.56;;;13.97;44.72
51053;BME280;37093;37.716;-122.060;2023-04-15T11:23:08;100254.40;;;14.07;43.70
51053;BME280;37093;37.716;-122.060;2023-04-15T11:25:36;100255.48;;;13.54;45.92
51053;BME280;37093;37.716;-122.060;2023-04-15T11:28:05;100259.95;;;13.66;45.30
51053;BME280;37093;37.716;-122.060;2023-04-15T11:30:35;100262.85;;;13.16;46.30
51053;BME280;37093;37.716;-122.060;2023-04-15T11:33:06;100262.15;;;13.23;45.92
51053;BME280;37093;37.716;-122.060;2023-04-15T11:35:35;100268.80;;;13.08;47.59
51053;BME280;37093;37.716;-122.060;2023-04-15T11:38:04;100271.47;;;12.49;47.80
51053;BME280;37093;37.716;-122.060;2023-04-15T11:40:33;100272.28;;;12.89;47.64
51053;BME280;37093;37.716;-122.060;2023-04-15T11:43:06;100270.80;;;12.75;47.80
51053;BME280;37093;37.716;-122.060;2023-04-15T11:45:37;100275.04;;;12.58;49.04
51053;BME280;37093;37.716;-122.060;2023-04-15T11:48:07;100276.00;;;12.79;48.36
51053;BME280;37093;37.716;-122.060;2023-04-15T11:50:37;100275.55;;;12.45;48.50
51053;BME280;37093;37.716;-122.060;2023-04-15T11:53:06;100286.64;;;12.08;49.44
51053;BME280;37093;37.716;-122.060;2023-04-15T11:55:42;100288.60;;;11.65;50.31
51053;BME280;37093;37.716;-122.060;2023-04-15T11:58:13;100287.03;;;12.20;49.52
51053;BME280;37093;37.716;-122.060;2023-04-15T12:00:46;100283.16;;;12.67;48.95
51053;BME280;37093;37.716;-122.060;2023-04-15T12:03:20;100281.50;;;12.93;47.92
51053;BME280;37093;37.716;-122.060;2023-04-15T12:06:06;100286.53;;;13.18;46.89
51053;BME280;37093;37.716;-122.060;2023-04-15T12:09:39;100293.26;;;11.62;50.23
51053;BME280;37093;37.716;-122.060;2023-04-15T12:12:06;100293.27;;;12.57;47.98
51053;BME280;37093;37.716;-122.060;2023-04-15T12:14:35;100292.94;;;12.28;49.05
51053;BME280;37093;37.716;-122.060;2023-04-15T12:17:05;100295.66;;;11.85;49.92
51053;BME280;37093;37.716;-122.060;2023-04-15T12:19:36;100292.77;;;11.32;51.28
51053;BME280;37093;37.716;-122.060;2023-04-15T12:22:07;100295.35;;;12.09;50.45
51053;BME280;37093;37.716;-122.060;2023-04-15T12:24:38;100290.76;;;12.68;49.23
51053;BME280;37093;37.716;-122.060;2023-04-15T12:27:07;100287.97;;;12.24;49.39
51053;BME280;37093;37.716;-122.060;2023-04-15T12:29:38;100286.86;;;12.74;47.49
51053;BME280;37093;37.716;-122.060;2023-04-15T12:32:08;100290.05;;;11.94;51.43
51053;BME280;37093;37.716;-122.060;2023-04-15T12:34:38;100287.60;;;12.37;49.30
51053;BME280;37093;37.716;-122.060;2023-04-15T12:37:08;100282.80;;;13.04;47.69
51053;BME280;37093;37.716;-122.060;2023-04-15T12:39:38;100282.80;;;13.28;46.98